Time;durP1;ratioP1;P1;durP2;ratioP2;P2;SDS_P1;SDS_P2;PMS_P1;PMS_P2;Temp;Humidity;BMP_temperature;BMP_pressure;BME280_temperature;BME280_humidity;BME280_pressure;Samples;Min_cycle;Max_cycle;Signal;HPM_P1;HPM_P2
2022/11/21 00:00:22;;;;;;;0.47;0.30;;;;;;;10.55;100.00;98124.56;5112347;28;20669;-58
2022/11/21 00:02:49;;;;;;;0.20;0.20;;;;;;;10.41;100.00;98107.06;5112188;28;20210;-58
2022/11/21 00:05:16;;;;;;;0.10;0.10;;;;;;;10.22;100.00;98100.19;5112191;28;20193;-58
2022/11/21 00:07:44;;;;;;;0.20;0.20;;;;;;;10.11;100.00;98080.66;5112282;28;20301;-59
2022/11/21 00:10:11;;;;;;;0.13;0.13;;;;;;;9.93;100.00;98044.78;5112095;28;20595;-64
2022/11/21 00:12:38;;;;;;;0.10;0.10;;;;;;;9.90;100.00;98037.38;5111990;28;20208;-63
2022/11/21 00:15:07;;;;;;;0.27;0.27;;;;;;;9.81;100.00;98042.47;5112138;28;20208;-59
2022/11/21 00:17:34;;;;;;;0.10;0.10;;;;;;;9.72;100.00;98019.34;5111816;28;20197;-58
2022/11/21 00:20:00;;;;;;;0.10;0.10;;;;;;;9.70;100.00;98005.09;5111885;28;20221;-58
2022/11/21 00:22:27;;;;;;;0.30;0.30;;;;;;;9.63;100.00;98004.81;5111725;28;20217;-59
2022/11/21 00:24:54;;;;;;;0.77;0.20;;;;;;;9.62;100.00;97998.09;5111813;28;20214;-63
2022/11/21 00:27:21;;;;;;;0.30;0.30;;;;;;;9.56;100.00;98001.16;5111433;28;20229;-59
2022/11/21 00:29:47;;;;;;;0.67;0.50;;;;;;;9.48;100.00;97989.09;5111302;28;20641;-62
2022/11/21 00:32:16;;;;;;;0.40;0.40;;;;;;;9.46;100.00;97987.59;5111428;28;20669;-58
2022/11/21 00:34:42;;;;;;;0.20;0.20;;;;;;;9.44;100.00;97990.25;5111869;28;20229;-58
2022/11/21 00:37:09;;;;;;;0.10;0.10;;;;;;;9.39;100.00;97997.50;5111305;28;20201;-63
2022/11/21 00:39:36;;;;;;;0.00;0.00;;;;;;;9.26;100.00;97991.84;5111503;28;20232;-63
2022/11/21 00:42:03;;;;;;;0.10;0.10;;;;;;;9.23;100.00;97990.34;5111356;28;20201;-58
2022/11/21 00:44:30;;;;;;;0.33;0.33;;;;;;;9.16;100.00;97980.78;5111363;28;20221;-58
2022/11/21 00:46:56;;;;;;;0.37;0.37;;;;;;;9.26;100.00;97972.22;5111207;28;20225;-58
2022/11/21 00:49:24;;;;;;;0.40;0.37;;;;;;;9.25;100.00;97965.53;5111088;28;20265;-58
2022/11/21 00:51:51;;;;;;;0.33;0.33;;;;;;;9.19;100.00;97950.75;5111360;28;20274;-62
2022/11/21 00:54:18;;;;;;;0.40;0.27;;;;;;;9.13;100.00;97930.84;5111325;28;20228;-63
2022/11/21 00:56:45;;;;;;;0.30;0.30;;;;;;;9.12;100.00;97920.78;5111181;28;20197;-64
2022/11/21 00:59:12;;;;;;;0.60;0.60;;;;;;;9.06;100.00;97894.88;5110638;28;20490;-63
2022/11/21 01:01:38;;;;;;;0.70;0.40;;;;;;;9.10;100.00;97900.50;5111206;28;20197;-64
2022/11/21 01:04:05;;;;;;;0.10;0.10;;;;;;;9.17;100.00;97911.81;5110869;28;20274;-63
2022/11/21 01:06:34;;;;;;;0.13;0.13;;;;;;;9.04;100.00;97912.03;5111337;28;20229;-58
2022/11/21 01:09:00;;;;;;;0.10;0.10;;;;;;;9.04;100.00;97904.38;5111019;28;20225;-58
2022/11/21 01:11:27;;;;;;;0.00;0.00;;;;;;;9.02;100.00;97895.28;5110939;28;20415;-58
2022/11/21 01:13:54;;;;;;;0.10;0.10;;;;;;;9.05;100.00;97882.25;5110680;28;20255;-58
2022/11/21 01:16:24;;;;;;;0.53;0.50;;;;;;;9.02;100.00;97872.34;5110686;28;20284;-63
2022/11/21 01:18:51;;;;;;;0.40;0.40;;;;;;;9.05;100.00;97867.78;5110892;27;20270;-58
2022/11/21 01:21:20;;;;;;;0.20;0.20;;;;;;;9.16;100.00;97866.88;5110689;28;20200;-63
2022/11/21 01:23:49;;;;;;;0.10;0.10;;;;;;;9.04;100.00;97885.72;5110856;28;20640;-58
2022/11/21 01:26:18;;;;;;;0.10;0.10;;;;;;;9.15;100.00;97903.47;5110737;28;20266;-59
2022/11/21 01:28:46;;;;;;;0.20;0.20;;;;;;;9.10;100.00;97907.34;5110594;28;20282;-58
2022/11/21 01:31:14;;;;;;;0.37;0.37;;;;;;;9.30;100.00;97926.84;5110602;28;20261;-63
2022/11/21 01:33:41;;;;;;;0.10;0.10;;;;;;;9.18;100.00;97938.91;5110358;28;20232;-58
2022/11/21 01:36:12;;;;;;;0.00;0.00;;;;;;;9.18;100.00;97951.66;5110410;28;20204;-63
2022/11/21 01:38:40;;;;;;;0.20;0.20;;;;;;;9.33;100.00;97952.09;5110454;28;20225;-63
2022/11/21 01:41:08;;;;;;;0.30;0.30;;;;;;;9.15;100.00;97939.19;5109382;28;20220;-63
2022/11/21 01:43:36;;;;;;;0.37;0.37;;;;;;;9.20;100.00;97909.00;5110442;28;20220;-59
2022/11/21 01:46:06;;;;;;;0.47;0.47;;;;;;;9.22;100.00;97907.13;5110270;28;20729;-63
2022/11/21 01:48:39;;;;;;;0.20;0.20;;;;;;;9.27;100.00;97907.53;5110230;28;20671;-64
2022/11/21 01:51:11;;;;;;;0.10;0.10;;;;;;;9.25;100.00;97909.41;5110651;28;20583;-58
2022/11/21 01:53:40;;;;;;;0.20;0.20;;;;;;;9.36;100.00;97921.22;5110147;28;20224;-58
2022/11/21 01:56:10;;;;;;;0.63;0.60;;;;;;;9.20;100.00;97942.16;5110305;28;20758;-58
2022/11/21 01:58:38;;;;;;;0.00;0.00;;;;;;;9.24;100.00;97948.59;5109886;28;20258;-63
2022/11/21 02:01:06;;;;;;;0.20;0.13;;;;;;;9.29;100.00;97926.06;5110304;28;20750;-63
2022/11/21 02:03:35;;;;;;;0.10;0.10;;;;;;;9.37;100.00;97916.97;5110071;28;20236;-58
2022/11/21 02:06:02;;;;;;;0.43;0.43;;;;;;;9.34;100.00;97912.09;5110308;28;20201;-63
2022/11/21 02:08:30;;;;;;;0.10;0.10;;;;;;;9.38;100.00;97919.38;5109608;28;20259;-62
2022/11/21 02:11:09;;;;;;;0.33;0.33;;;;;;;9.21;100.00;97918.25;5110061;28;20685;-63
2022/11/21 02:13:37;;;;;;;0.43;0.37;;;;;;;9.20;100.00;97896.25;5110214;28;20225;-63
2022/11/21 02:16:05;;;;;;;0.10;0.10;;;;;;;9.21;100.00;97877.44;5110069;28;20196;-63
2022/11/21 02:18:32;;;;;;;0.33;0.33;;;;;;;9.26;100.00;97875.31;5110258;28;20641;-58
2022/11/21 02:21:05;;;;;;;0.10;0.10;;;;;;;9.44;100.00;97867.00;5109965;28;20201;-63
2022/11/21 02:23:39;;;;;;;0.23;0.23;;;;;;;9.57;100.00;97862.47;5110008;28;20251;-58
2022/11/21 02:26:08;;;;;;;0.40;0.40;;;;;;;9.61;100.00;97863.00;5110161;28;20663;-63
2022/11/21 02:28:35;;;;;;;0.20;0.20;;;;;;;9.67;100.00;97867.56;5109993;28;20247;-59
2022/11/21 02:31:01;;;;;;;0.30;0.30;;;;;;;9.49;100.00;97875.06;5109998;28;20197;-58
2022/11/21 02:33:28;;;;;;;0.10;0.10;;;;;;;9.39;100.00;97864.84;5109960;28;20697;-61
2022/11/21 02:35:59;;;;;;;0.00;0.00;;;;;;;9.43;100.00;97860.31;5109941;28;20599;-58
2022/11/21 02:38:30;;;;;;;0.10;0.10;;;;;;;9.66;100.00;97846.34;5109789;28;20290;-63
2022/11/21 02:41:04;;;;;;;0.10;0.10;;;;;;;9.62;100.00;97828.88;5109757;28;20189;-63
2022/11/21 02:43:38;;;;;;;0.10;0.10;;;;;;;9.63;100.00;97826.19;5109732;28;20709;-59
2022/11/21 02:46:05;;;;;;;0.10;0.10;;;;;;;9.58;100.00;97807.94;5109893;28;20258;-59
2022/11/21 02:48:31;;;;;;;0.47;0.47;;;;;;;9.63;100.00;97821.09;5109866;28;20616;-58
2022/11/21 02:50:58;;;;;;;0.20;0.20;;;;;;;9.60;100.00;97831.56;5109785;28;20650;-58
2022/11/21 02:53:25;;;;;;;0.10;0.10;;;;;;;9.60;100.00;97831.56;5113370;28;20720;-63
2022/11/21 02:55:52;;;;;;;0.00;0.00;;;;;;;9.80;100.00;97841.75;5113586;28;20558;-59
2022/11/21 02:58:18;;;;;;;0.47;0.43;;;;;;;9.79;100.00;97847.78;5113072;28;20218;-63
2022/11/21 03:00:47;;;;;;;0.00;0.00;;;;;;;9.64;100.00;97848.22;5113520;27;20222;-63
2022/11/21 03:03:14;;;;;;;0.20;0.20;;;;;;;9.41;100.00;97836.66;5113228;28;20254;-58
2022/11/21 03:05:41;;;;;;;0.17;0.17;;;;;;;9.49;100.00;97806.19;5113391;28;20232;-58
2022/11/21 03:08:09;;;;;;;0.10;0.10;;;;;;;9.46;100.00;97788.59;5113040;27;20650;-58
2022/11/21 03:10:35;;;;;;;0.10;0.10;;;;;;;9.50;100.00;97749.09;5113461;28;20198;-58
2022/11/21 03:13:02;;;;;;;0.30;0.30;;;;;;;9.42;100.00;97746.44;5113119;28;20225;-58
2022/11/21 03:15:30;;;;;;;0.50;0.50;;;;;;;9.34;100.00;97749.69;5113212;27;20669;-63
2022/11/21 03:18:01;;;;;;;0.10;0.10;;;;;;;9.36;100.00;97708.72;5113102;28;20193;-59
2022/11/21 03:20:28;;;;;;;0.10;0.10;;;;;;;9.38;100.00;97709.41;5113514;28;20208;-63
2022/11/21 03:22:55;;;;;;;0.20;0.20;;;;;;;9.32;100.00;97694.66;5113010;28;20254;-63
2022/11/21 03:25:22;;;;;;;0.10;0.10;;;;;;;9.36;100.00;97690.88;5112940;28;20208;-58
2022/11/21 03:27:51;;;;;;;0.10;0.10;;;;;;;9.24;100.00;97698.66;5112699;28;20237;-63
2022/11/21 03:30:17;;;;;;;0.20;0.20;;;;;;;9.15;100.00;97683.38;5112803;28;20288;-58
2022/11/21 03:32:44;;;;;;;0.27;0.27;;;;;;;9.18;100.00;97694.13;5112448;28;20719;-58
2022/11/21 03:35:13;;;;;;;0.00;0.00;;;;;;;9.23;100.00;97712.38;5113120;28;20197;-59
2022/11/21 03:37:39;;;;;;;0.10;0.10;;;;;;;9.25;100.00;97700.28;5112618;28;20205;-63
2022/11/21 03:40:08;;;;;;;0.27;0.27;;;;;;;9.26;100.00;97694.25;5112579;28;20202;-58
2022/11/21 03:42:34;;;;;;;0.00;0.00;;;;;;;9.33;100.00;97707.25;5112516;28;20657;-58
2022/11/21 03:45:01;;;;;;;0.00;0.00;;;;;;;9.23;100.00;97712.38;5112585;28;20721;-63
2022/11/21 03:47:28;;;;;;;0.40;0.30;;;;;;;9.21;100.00;97719.34;5112375;28;20723;-63
2022/11/21 03:49:55;;;;;;;0.00;0.00;;;;;;;9.12;100.00;97717.59;5112356;28;20217;-62
2022/11/21 03:52:23;;;;;;;0.40;0.20;;;;;;;9.24;100.00;97733.56;5112262;28;20193;-63
2022/11/21 03:54:50;;;;;;;0.17;0.17;;;;;;;9.24;100.00;97739.47;5112235;28;20251;-62
2022/11/21 03:57:16;;;;;;;0.23;0.23;;;;;;;9.32;100.00;97735.44;5112229;28;20197;-58
2022/11/21 03:59:43;;;;;;;1.30;0.27;;;;;;;9.16;100.00;97726.63;5111959;28;20388;-63
2022/11/21 04:02:10;;;;;;;0.50;0.50;;;;;;;9.26;100.00;97721.50;5112080;28;20202;-58
2022/11/21 04:04:37;;;;;;;0.10;0.10;;;;;;;9.30;100.00;97726.16;5111392;27;20735;-63
2022/11/21 04:07:04;;;;;;;0.20;0.20;;;;;;;9.13;100.00;97724.31;5112049;28;20209;-63
2022/11/21 04:09:32;;;;;;;0.10;0.10;;;;;;;9.12;100.00;97722.72;5112275;28;20705;-63
2022/11/21 04:11:59;;;;;;;0.23;0.23;;;;;;;9.12;100.00;97720.16;5111990;28;20208;-63
2022/11/21 04:14:26;;;;;;;0.20;0.20;;;;;;;9.10;100.00;97716.94;5112183;28;20213;-58
2022/11/21 04:16:53;;;;;;;0.03;0.03;;;;;;;9.05;100.00;97716.56;5111906;28;20205;-58
2022/11/21 04:19:19;;;;;;;0.37;0.37;;;;;;;9.03;100.00;97708.22;5111775;28;20249;-58
2022/11/21 04:21:46;;;;;;;0.50;0.50;;;;;;;8.98;100.00;97707.81;5111921;28;20345;-63
2022/11/21 04:24:13;;;;;;;0.10;0.10;;;;;;;8.96;100.00;97694.41;5111727;28;20214;-63
2022/11/21 04:26:41;;;;;;;0.53;0.50;;;;;;;8.90;100.00;97690.66;5111705;28;20201;-63
2022/11/21 04:29:08;;;;;;;1.37;0.83;;;;;;;8.86;100.00;97698.69;5111987;28;20240;-58
2022/11/21 04:31:34;;;;;;;0.67;0.33;;;;;;;8.90;100.00;97700.84;5111702;27;20212;-58
2022/11/21 04:34:01;;;;;;;0.37;0.37;;;;;;;8.98;100.00;97707.81;5111575;28;20233;-63
2022/11/21 04:36:28;;;;;;;0.20;0.20;;;;;;;8.90;100.00;97698.31;5111604;28;20205;-63
2022/11/21 04:38:55;;;;;;;0.30;0.30;;;;;;;8.84;100.00;97697.09;5111081;28;20232;-63
2022/11/21 04:41:21;;;;;;;0.17;0.17;;;;;;;8.89;100.00;97698.44;5111419;28;20201;-58
2022/11/21 04:43:50;;;;;;;0.50;0.50;;;;;;;8.91;100.00;97707.56;5111076;28;20274;-63
2022/11/21 04:46:16;;;;;;;0.50;0.50;;;;;;;8.88;100.00;97712.13;5111545;28;20200;-58
2022/11/21 04:48:43;;;;;;;0.20;0.20;;;;;;;8.80;100.00;97716.13;5111038;28;20244;-63
2022/11/21 04:51:10;;;;;;;0.10;0.10;;;;;;;8.83;100.00;97728.59;5111553;28;20294;-58
2022/11/21 04:53:37;;;;;;;0.10;0.10;;;;;;;8.76;100.00;97719.09;5111546;28;20217;-58
2022/11/21 04:56:05;;;;;;;0.27;0.27;;;;;;;8.75;100.00;97733.56;5111359;28;20201;-63
2022/11/21 04:58:32;;;;;;;0.43;0.30;;;;;;;8.97;100.00;97747.00;5111070;28;20317;-58
2022/11/21 05:01:05;;;;;;;0.30;0.27;;;;;;;8.88;100.00;97788.59;5111239;28;20614;-63
2022/11/21 05:03:32;;;;;;;0.20;0.20;;;;;;;8.75;100.00;97794.72;5111481;28;20592;-63
2022/11/21 05:05:59;;;;;;;0.13;0.13;;;;;;;8.82;100.00;97795.00;5110952;28;20270;-61
2022/11/21 05:08:25;;;;;;;0.10;0.10;;;;;;;8.81;100.00;97788.28;5110803;28;20293;-63
2022/11/21 05:13:36;;;;;;;0.10;0.10;;;;;;;8.92;100.00;97787.38;5110795;28;20216;-63
2022/11/21 05:16:05;;;;;;;0.13;0.13;;;;;;;8.98;100.00;97789.38;5110908;28;20208;-58
2022/11/21 05:18:32;;;;;;;0.10;0.10;;;;;;;9.02;100.00;97786.47;5111008;28;20225;-63
2022/11/21 05:21:00;;;;;;;0.53;0.47;;;;;;;9.12;100.00;97771.16;5110660;28;20259;-60
2022/11/21 05:23:27;;;;;;;2.27;0.87;;;;;;;9.27;100.00;97761.34;5110890;28;20224;-58
2022/11/21 05:25:54;;;;;;;0.23;0.23;;;;;;;9.23;100.00;97760.03;5110575;28;20701;-58
2022/11/21 05:28:21;;;;;;;1.27;1.17;;;;;;;9.25;100.00;97766.59;5110275;28;20235;-63
2022/11/21 05:30:48;;;;;;;0.17;0.17;;;;;;;9.28;100.00;97773.97;5110525;28;20204;-59
2022/11/21 05:33:16;;;;;;;0.20;0.20;;;;;;;9.36;100.00;97783.50;5110593;28;20228;-63
2022/11/21 05:35:43;;;;;;;0.40;0.40;;;;;;;9.52;100.00;97770.19;5110500;28;20618;-63
2022/11/21 05:38:09;;;;;;;0.37;0.37;;;;;;;9.38;100.00;97785.91;5110684;28;20217;-58
2022/11/21 05:40:36;;;;;;;0.30;0.30;;;;;;;9.35;100.00;97792.09;5110338;28;20223;-59
2022/11/21 05:45:49;;;;;;;1.13;0.47;;;;;;;9.44;100.00;97798.13;5110376;28;20200;-63
2022/11/21 05:48:17;;;;;;;0.10;0.10;;;;;;;9.62;100.00;97811.00;5110256;28;20767;-63
2022/11/21 05:50:47;;;;;;;0.10;0.10;;;;;;;9.58;100.00;97812.22;5110306;28;20208;-59
2022/11/21 05:53:14;;;;;;;0.13;0.13;;;;;;;9.68;100.00;97821.47;5110357;28;20221;-63
2022/11/21 05:55:41;;;;;;;0.20;0.20;;;;;;;9.69;100.00;97828.19;5110267;28;20201;-58
2022/11/21 05:58:09;;;;;;;0.27;0.27;;;;;;;9.66;100.00;97833.56;5110284;28;20217;-58
2022/11/21 06:00:37;;;;;;;0.30;0.30;;;;;;;9.72;100.00;97833.03;5110133;28;20197;-63
2022/11/21 06:05:49;;;;;;;0.23;0.23;;;;;;;9.53;100.00;97815.16;5110144;28;20204;-63
2022/11/21 06:08:16;;;;;;;0.77;0.50;;;;;;;9.60;100.00;97821.38;5110197;28;20701;-58
2022/11/21 06:10:43;;;;;;;1.70;0.47;;;;;;;9.68;100.00;97825.78;5110234;28;20277;-58
2022/11/21 06:13:20;;;;;;;0.20;0.20;;;;;;;9.77;100.00;97834.34;5109823;28;20221;-58
2022/11/21 06:15:49;;;;;;;0.30;0.20;;;;;;;9.87;100.00;97833.41;5110139;28;20201;-59
2022/11/21 06:18:16;;;;;;;0.73;0.60;;;;;;;9.93;100.00;97837.16;5110112;28;20261;-58
2022/11/21 06:20:43;;;;;;;0.23;0.23;;;;;;;10.05;100.00;97848.81;5109833;28;20212;-63
2022/11/21 06:23:11;;;;;;;0.40;0.40;;;;;;;10.03;100.00;97855.81;5110304;28;20584;-63
2022/11/21 06:25:38;;;;;;;0.20;0.20;;;;;;;9.92;100.00;97855.97;5109918;28;20205;-59
2022/11/21 06:28:05;;;;;;;0.37;0.37;;;;;;;9.84;100.00;97864.31;5113379;28;20436;-59
2022/11/21 06:30:31;;;;;;;0.30;0.30;;;;;;;9.82;100.00;97863.63;5114056;28;20626;-60
2022/11/21 06:32:59;;;;;;;0.13;0.13;;;;;;;9.84;100.00;97873.72;5113644;28;20198;-63
2022/11/21 06:35:25;;;;;;;0.33;0.33;;;;;;;9.89;100.00;97877.47;5113875;27;20201;-59
2022/11/21 06:37:52;;;;;;;0.67;0.20;;;;;;;10.00;100.00;97868.03;5114008;27;20641;-59
2022/11/21 06:40:20;;;;;;;0.20;0.20;;;;;;;9.95;100.00;97871.03;5113779;28;20193;-58
2022/11/21 06:42:47;;;;;;;0.10;0.10;;;;;;;10.02;100.00;97874.63;5113662;28;20205;-58
2022/11/21 06:45:14;;;;;;;0.10;0.10;;;;;;;10.05;100.00;97871.00;5113820;28;20246;-63
2022/11/21 06:47:41;;;;;;;0.20;0.20;;;;;;;10.06;100.00;97878.50;5113420;28;20209;-58
2022/11/21 06:50:09;;;;;;;0.50;0.50;;;;;;;10.08;100.00;97880.94;5113668;28;20204;-63
2022/11/21 06:52:35;;;;;;;0.50;0.50;;;;;;;10.10;100.00;97877.31;5113568;28;20341;-58
2022/11/21 06:55:02;;;;;;;0.73;0.40;;;;;;;10.01;100.00;97880.69;5113490;28;20220;-63
2022/11/21 06:57:31;;;;;;;1.03;0.77;;;;;;;10.00;100.00;97889.28;5113413;28;20201;-63
2022/11/21 06:59:58;;;;;;;0.50;0.50;;;;;;;9.98;100.00;97886.06;5113326;28;20224;-64
2022/11/21 07:02:26;;;;;;;0.57;0.30;;;;;;;9.99;100.00;97882.56;5113584;27;20193;-58
2022/11/21 07:04:52;;;;;;;1.50;0.80;;;;;;;10.01;100.00;97888.34;5113552;28;20853;-59
2022/11/21 07:07:19;;;;;;;0.20;0.20;;;;;;;10.03;100.00;97894.09;5113233;28;20250;-59
2022/11/21 07:09:46;;;;;;;0.50;0.50;;;;;;;10.01;100.00;97905.44;5112990;28;20781;-58
2022/11/21 07:14:59;;;;;;;0.57;0.57;;;;;;;9.94;100.00;97910.25;5113220;28;20241;-63
2022/11/21 07:17:26;;;;;;;1.23;1.13;;;;;;;9.94;100.00;97911.06;5113084;28;20210;-58
2022/11/21 07:19:52;;;;;;;0.40;0.40;;;;;;;10.02;100.00;97917.25;5113083;28;20225;-63
2022/11/21 07:22:19;;;;;;;0.83;0.83;;;;;;;10.07;100.00;97917.66;5112789;28;20689;-63
2022/11/21 07:24:46;;;;;;;0.30;0.27;;;;;;;10.05;100.00;97927.19;5113179;28;20249;-63
2022/11/21 07:27:13;;;;;;;0.20;0.20;;;;;;;10.05;100.00;97938.19;5112795;28;20269;-63
2022/11/21 07:29:40;;;;;;;0.13;0.13;;;;;;;9.98;100.00;97945.59;5112667;28;20709;-63
2022/11/21 07:32:08;;;;;;;0.60;0.53;;;;;;;9.88;100.00;97946.53;5112755;28;20205;-58
2022/11/21 07:34:35;;;;;;;0.77;0.50;;;;;;;9.84;100.00;97956.22;5112766;28;20260;-63
2022/11/21 07:37:02;;;;;;;0.77;0.77;;;;;;;9.75;100.00;97946.81;5112952;28;20221;-58
2022/11/21 07:39:28;;;;;;;0.97;0.97;;;;;;;9.68;100.00;97950.81;5111243;28;20224;-63
2022/11/21 07:41:55;;;;;;;2.50;0.87;;;;;;;9.67;100.00;97960.22;5112584;28;20193;-58
2022/11/21 07:44:22;;;;;;;0.53;0.53;;;;;;;9.64;100.00;97960.50;5112362;28;20266;-63
2022/11/21 07:46:49;;;;;;;0.23;0.23;;;;;;;9.70;100.00;97969.38;5112998;28;20200;-63
2022/11/21 07:49:17;;;;;;;5.10;0.60;;;;;;;9.64;100.00;97980.91;5112236;28;20290;-58
2022/11/21 07:51:44;;;;;;;0.13;0.13;;;;;;;9.45;100.00;97985.97;5112534;28;20189;-59
2022/11/21 07:54:11;;;;;;;0.47;0.40;;;;;;;9.22;100.00;97996.41;5112615;28;20419;-58
2022/11/21 07:56:37;;;;;;;0.10;0.10;;;;;;;9.05;100.00;97994.44;5112351;28;20200;-64
2022/11/21 07:59:04;;;;;;;0.30;0.30;;;;;;;8.84;100.00;98002.09;5112306;28;20316;-58
2022/11/21 08:01:32;;;;;;;0.07;0.07;;;;;;;8.89;100.00;98009.38;5112285;28;20201;-58
2022/11/21 08:03:58;;;;;;;0.20;0.17;;;;;;;8.78;100.00;98003.41;5112330;28;20221;-58
2022/11/21 08:06:27;;;;;;;0.27;0.27;;;;;;;8.66;100.00;98014.63;5112111;28;20205;-63
2022/11/21 08:08:54;;;;;;;0.20;0.20;;;;;;;8.51;100.00;98026.06;5111743;28;20233;-58
2022/11/21 08:11:21;;;;;;;0.47;0.43;;;;;;;8.42;100.00;98025.06;5112035;28;20197;-63
2022/11/21 08:13:47;;;;;;;0.30;0.30;;;;;;;8.23;100.00;98032.53;5111636;28;20797;-58
2022/11/21 08:16:14;;;;;;;0.43;0.43;;;;;;;8.27;100.00;98028.81;5111949;28;20266;-63
2022/11/21 08:18:41;;;;;;;0.10;0.10;;;;;;;8.12;100.00;98031.66;5111730;28;20228;-58
2022/11/21 08:21:08;;;;;;;0.20;0.20;;;;;;;8.01;100.00;98030.88;5111742;28;20212;-63
2022/11/21 08:23:36;;;;;;;0.10;0.10;;;;;;;8.06;100.00;98044.06;5111837;28;20221;-63
2022/11/21 08:26:02;;;;;;;0.13;0.13;;;;;;;7.99;100.00;98045.47;5111867;28;20197;-58
2022/11/21 08:28:29;;;;;;;0.10;0.10;;;;;;;7.94;100.00;98054.28;5111906;28;20244;-59
2022/11/21 08:30:56;;;;;;;0.20;0.20;;;;;;;7.97;100.00;98072.75;5111635;28;20197;-58
2022/11/21 08:33:23;;;;;;;0.00;0.00;;;;;;;7.89;100.00;98074.16;5111681;28;20232;-58
2022/11/21 08:35:50;;;;;;;0.00;0.00;;;;;;;7.75;100.00;98074.44;5111539;28;20205;-65
2022/11/21 08:38:16;;;;;;;0.10;0.10;;;;;;;7.63;100.00;98093.19;5111480;28;20274;-58
2022/11/21 08:40:44;;;;;;;0.20;0.20;;;;;;;7.63;100.00;98088.09;5111321;28;20194;-64
2022/11/21 08:43:11;;;;;;;0.10;0.10;;;;;;;7.60;100.00;98085.78;5111235;28;20228;-58
2022/11/21 08:45:38;;;;;;;0.47;0.40;;;;;;;7.45;100.00;98093.66;5111789;28;20194;-64
2022/11/21 08:48:10;;;;;;;0.13;0.13;;;;;;;7.55;100.00;98080.22;5111342;28;20320;-58
2022/11/21 08:50:37;;;;;;;0.10;0.10;;;;;;;7.55;100.00;98082.78;5110852;28;20232;-64
2022/11/21 08:53:04;;;;;;;0.50;0.40;;;;;;;7.59;100.00;98090.06;5111263;28;20213;-64
2022/11/21 08:55:31;;;;;;;0.43;0.27;;;;;;;7.58;100.00;98096.06;5111129;28;20205;-64
2022/11/21 08:57:59;;;;;;;0.20;0.20;;;;;;;7.53;100.00;98110.03;5110855;28;20193;-58
2022/11/21 09:00:26;;;;;;;0.00;0.00;;;;;;;7.44;100.00;98119.97;5110920;28;20247;-58
2022/11/21 09:02:53;;;;;;;0.33;0.33;;;;;;;7.40;100.00;98136.41;5110963;28;20625;-64
2022/11/21 09:05:20;;;;;;;0.10;0.10;;;;;;;7.25;100.00;98138.34;5111218;28;20228;-58
2022/11/21 09:07:47;;;;;;;0.30;0.30;;;;;;;7.19;100.00;98148.16;5110740;28;20208;-64
2022/11/21 09:10:14;;;;;;;0.03;0.03;;;;;;;7.27;100.00;98145.84;5110966;28;20245;-64
2022/11/21 09:12:41;;;;;;;0.10;0.10;;;;;;;7.10;100.00;98148.81;5110846;28;20197;-58
2022/11/21 09:18:04;;;;;;;1.57;0.63;;;;;;;7.15;100.00;98134.84;5110855;28;20217;-58
2022/11/21 09:20:30;;;;;;;0.10;0.10;;;;;;;7.12;100.00;98150.31;5110828;28;20200;-58
2022/11/21 09:22:57;;;;;;;0.30;0.30;;;;;;;7.08;100.00;98141.31;5110666;28;20204;-65
2022/11/21 09:25:24;;;;;;;0.20;0.20;;;;;;;7.05;100.00;98156.00;5110633;28;20201;-58
2022/11/21 09:27:51;;;;;;;0.17;0.17;;;;;;;6.93;100.00;98158.50;5110406;28;20658;-58
2022/11/21 09:30:19;;;;;;;0.27;0.27;;;;;;;7.01;100.00;98161.28;5110420;28;20282;-65
2022/11/21 09:32:46;;;;;;;0.03;0.03;;;;;;;6.94;100.00;98167.72;5110400;28;20197;-58
2022/11/21 09:35:12;;;;;;;0.20;0.20;;;;;;;6.95;100.00;98171.91;5110562;28;20684;-58
2022/11/21 09:37:39;;;;;;;0.20;0.20;;;;;;;6.86;100.00;98152.22;5110559;28;20670;-65
2022/11/21 09:40:14;;;;;;;0.00;0.00;;;;;;;6.84;100.00;98138.84;5110734;27;20412;-58
2022/11/21 09:42:57;;;;;;;0.10;0.10;;;;;;;6.86;100.00;98142.06;5110157;28;20201;-58
2022/11/21 09:45:33;;;;;;;0.20;0.20;;;;;;;6.87;100.00;98141.16;5110449;28;20275;-65
2022/11/21 09:48:03;;;;;;;0.17;0.17;;;;;;;7.01;100.00;98140.97;5110629;28;20285;-65
2022/11/21 09:50:34;;;;;;;0.20;0.20;;;;;;;7.10;100.00;98128.47;5110232;28;20240;-64
2022/11/21 09:53:05;;;;;;;0.10;0.10;;;;;;;7.13;100.00;98138.47;5110437;28;20705;-58
2022/11/21 09:55:39;;;;;;;0.10;0.10;;;;;;;7.27;100.00;98135.69;5110530;28;20745;-64
2022/11/21 09:58:16;;;;;;;0.20;0.17;;;;;;;7.37;100.00;98121.38;5110324;27;20220;-64
2022/11/21 10:00:44;;;;;;;0.20;0.20;;;;;;;7.40;100.00;98121.16;5109654;28;20250;-58
2022/11/21 10:03:12;;;;;;;0.20;0.20;;;;;;;7.55;100.00;98119.19;5109735;28;20358;-58
2022/11/21 10:05:44;;;;;;;0.20;0.20;;;;;;;7.86;100.00;98127.84;5110310;28;20669;-58
2022/11/21 10:08:23;;;;;;;0.20;0.20;;;;;;;8.00;100.00;98138.69;5110385;28;20689;-65
2022/11/21 10:10:56;;;;;;;0.00;0.00;;;;;;;7.89;100.00;98132.69;5109955;28;20724;-58
2022/11/21 10:13:53;;;;;;;0.10;0.10;;;;;;;7.91;100.00;98133.41;5110274;28;20701;-58
2022/11/21 10:16:31;;;;;;;0.13;0.13;;;;;;;8.01;100.00;98137.78;5110022;28;20197;-65
2022/11/21 10:19:32;;;;;;;0.00;0.00;;;;;;;8.12;100.00;98137.78;5110039;28;20232;-58
2022/11/21 10:22:20;;;;;;;0.30;0.30;;;;;;;8.91;100.00;98145.97;5110216;28;20561;-64
2022/11/21 10:24:56;;;;;;;0.20;0.20;;;;;;;9.61;100.00;98144.50;5109815;28;20616;-64
2022/11/21 10:27:32;;;;;;;0.10;0.10;;;;;;;9.77;100.00;98149.13;5110007;28;20203;-58
2022/11/21 10:30:03;;;;;;;0.10;0.10;;;;;;;9.83;100.00;98145.25;5109659;28;20265;-59
2022/11/21 10:32:37;;;;;;;0.10;0.10;;;;;;;9.86;100.00;98147.53;5109958;28;20292;-58
2022/11/21 10:35:13;;;;;;;0.20;0.20;;;;;;;9.80;100.00;98148.06;5109873;28;20303;-58
2022/11/21 10:37:45;;;;;;;0.07;0.07;;;;;;;9.55;100.00;98144.22;5109652;28;20236;-58
2022/11/21 10:40:23;;;;;;;0.20;0.20;;;;;;;9.38;100.00;98138.75;5110082;28;20216;-58
2022/11/21 10:42:56;;;;;;;0.00;0.00;;;;;;;9.25;100.00;98144.06;5109827;28;20197;-58
2022/11/21 10:45:23;;;;;;;0.10;0.10;;;;;;;9.38;100.00;98135.41;5109828;28;20193;-58
2022/11/21 10:47:53;;;;;;;0.10;0.10;;;;;;;9.40;100.00;98130.97;5109599;28;20206;-58
2022/11/21 10:50:38;;;;;;;0.40;0.40;;;;;;;9.33;100.00;98129.84;5109780;28;20658;-58
2022/11/21 10:56:03;;;;;;;0.10;0.10;;;;;;;9.05;100.00;98127.84;5109777;28;20201;-64
2022/11/21 10:58:42;;;;;;;0.20;0.10;;;;;;;8.94;100.00;98130.44;5109700;28;20721;-63
2022/11/21 11:01:28;;;;;;;0.00;0.00;;;;;;;8.77;100.00;98134.34;5109536;28;20189;-63
2022/11/21 11:04:15;;;;;;;0.10;0.10;;;;;;;8.99;100.00;98122.44;5109638;28;20221;-58
2022/11/21 11:06:44;;;;;;;0.30;0.20;;;;;;;9.46;100.00;98120.25;5109511;28;20197;-62
2022/11/21 11:09:27;;;;;;;0.10;0.10;;;;;;;9.86;100.00;98115.19;5109188;28;20232;-58
2022/11/21 11:11:54;;;;;;;0.20;0.20;;;;;;;10.13;97.44;98108.66;5109604;28;20205;-58
2022/11/21 11:14:30;;;;;;;0.20;0.20;;;;;;;10.27;94.76;98112.56;5113032;28;20213;-65
2022/11/21 11:16:57;;;;;;;0.03;0.03;;;;;;;10.50;95.54;98136.13;5113530;28;20243;-57
2022/11/21 11:19:28;;;;;;;0.10;0.10;;;;;;;10.52;94.21;98129.94;5113303;28;20217;-58
2022/11/21 11:21:56;;;;;;;0.13;0.13;;;;;;;10.63;94.39;98145.16;5113367;28;20193;-63
2022/11/21 11:24:26;;;;;;;0.10;0.10;;;;;;;10.93;95.36;98153.63;5113122;28;20757;-63
2022/11/21 11:26:58;;;;;;;0.10;0.10;;;;;;;11.16;93.00;98143.09;5112942;28;20682;-60
2022/11/21 11:29:26;;;;;;;0.20;0.20;;;;;;;11.37;92.41;98146.28;5112623;27;20243;-58
2022/11/21 11:31:56;;;;;;;0.30;0.30;;;;;;;11.50;92.18;98149.34;5112746;28;20201;-57
2022/11/21 11:34:25;;;;;;;0.10;0.10;;;;;;;11.52;92.15;98152.59;5112930;28;20521;-64
2022/11/21 11:37:08;;;;;;;0.17;0.17;;;;;;;11.48;93.07;98158.09;5112751;28;20631;-58
2022/11/21 11:39:42;;;;;;;0.10;0.10;;;;;;;10.84;86.47;98154.44;5112844;28;20219;-58
2022/11/21 11:48:02;;;;;;;0.20;0.20;;;;;;;10.20;89.74;98153.94;5112594;28;20220;-63
2022/11/21 11:50:32;;;;;;;0.10;0.10;;;;;;;10.28;88.80;98152.53;5112312;28;20232;-58
2022/11/21 11:53:07;;;;;;;0.00;0.00;;;;;;;10.44;88.84;98145.13;5112385;28;20220;-63
2022/11/21 11:55:40;;;;;;;0.20;0.20;;;;;;;10.47;88.92;98142.34;5112703;27;20645;-62
2022/11/21 11:58:11;;;;;;;0.10;0.10;;;;;;;10.24;90.00;98140.91;5112223;28;20221;-63
2022/11/21 12:00:42;;;;;;;0.20;0.20;;;;;;;10.20;89.76;98143.72;5112189;27;20198;-58